sensor_id;sensor_type;location;lat;lon;timestamp;pressure;altitude;pressure_sealevel;temperature;humidity
3668;BME280;24099;47.102;15.440;2023-05-12T00:00:33;97005.84;;;10.00;100.00
3668;BME280;24099;47.102;15.440;2023-05-12T00:03:00;97002.69;;;10.05;100.00
3668;BME280;24099;47.102;15.440;2023-05-12T00:05:32;97006.41;;;10.10;100.00
3668;BME280;24099;47.102;15.440;2023-05-12T00:08:00;97000.34;;;10.10;100.00
3668;BME280;24099;47.102;15.440;2023-05-12T00:10:29;97004.41;;;10.12;100.00
3668;BME280;24099;47.102;15.440;2023-05-12T00:12:57;97012.13;;;10.14;100.00
3668;BME280;24099;47.102;15.440;2023-05-12T00:15:25;97006.88;;;10.14;100.00
3668;BME280;24099;47.102;15.440;2023-05-12T00:17:53;97009.31;;;10.15;100.00
3668;BME280;24099;47.102;15.440;2023-05-12T00:20:21;97002.50;;;10.21;100.00
3668;BME280;24099;47.102;15.440;2023-05-12T00:22:49;97012.59;;;10.17;100.00
3668;BME280;24099;47.102;15.440;2023-05-12T00:25:16;97003.69;;;10.18;100.00
3668;BME280;24099;47.102;15.440;2023-05-12T00:27:46;97006.31;;;10.18;100.00
3668;BME280;24099;47.102;15.440;2023-05-12T00:30:14;96999.78;;;10.14;100.00
3668;BME280;24099;47.102;15.440;2023-05-12T00:32:41;97007.31;;;10.17;100.00
3668;BME280;24099;47.102;15.440;2023-05-12T00:35:09;97000.69;;;10.21;100.00
3668;BME280;24099;47.102;15.440;2023-05-12T00:37:37;96994.81;;;10.19;100.00
3668;BME280;24099;47.102;15.440;2023-05-12T00:40:08;96995.81;;;10.18;100.00
3668;BME280;24099;47.102;15.440;2023-05-12T00:42:36;97000.88;;;10.20;100.00
3668;BME280;24099;47.102;15.440;2023-05-12T00:45:07;96996.81;;;10.17;100.00
3668;BME280;24099;47.102;15.440;2023-05-12T00:47:38;96996.44;;;10.20;100.00
3668;BME280;24099;47.102;15.440;2023-05-12T00:50:09;97001.06;;;10.18;100.00
3668;BME280;24099;47.102;15.440;2023-05-12T00:52:37;96989.53;;;10.19;100.00
3668;BME280;24099;47.102;15.440;2023-05-12T00:55:05;97000.16;;;10.11;100.00
3668;BME280;24099;47.102;15.440;2023-05-12T00:57:33;96995.16;;;10.16;100.00
3668;BME280;24099;47.102;15.440;2023-05-12T01:00:01;97001.25;;;10.17;100.00
3668;BME280;24099;47.102;15.440;2023-05-12T01:02:32;96991.63;;;10.24;100.00
3668;BME280;24099;47.102;15.440;2023-05-12T01:05:00;96996.66;;;10.19;100.00
3668;BME280;24099;47.102;15.440;2023-05-12T01:07:31;96993.72;;;10.14;100.00
3668;BME280;24099;47.102;15.440;2023-05-12T01:10:14;96998.78;;;10.15;100.00
3668;BME280;24099;47.102;15.440;2023-05-12T01:12:45;97004.53;;;10.19;100.00
3668;BME280;24099;47.102;15.440;2023-05-12T01:15:14;96995.63;;;10.20;100.00
3668;BME280;24099;47.102;15.440;2023-05-12T01:17:49;96999.28;;;10.19;100.00
3668;BME280;24099;47.102;15.440;2023-05-12T01:20:25;96994.81;;;10.19;100.00
3668;BME280;24099;47.102;15.440;2023-05-12T01:22:54;96993.63;;;10.22;100.00
3668;BME280;24099;47.102;15.440;2023-05-12T01:25:27;96995.44;;;10.21;100.00
3668;BME280;24099;47.102;15.440;2023-05-12T01:28:01;96991.19;;;10.20;100.00
3668;BME280;24099;47.102;15.440;2023-05-12T01:30:31;96994.53;;;10.14;100.00
3668;BME280;24099;47.102;15.440;2023-05-12T01:32:58;96987.09;;;10.18;100.00
3668;BME280;24099;47.102;15.440;2023-05-12T01:35:26;96998.25;;;10.20;100.00
3668;BME280;24099;47.102;15.440;2023-05-12T01:37:58;96994.44;;;10.22;100.00
3668;BME280;24099;47.102;15.440;2023-05-12T01:40:31;96998.44;;;10.18;100.00
3668;BME280;24099;47.102;15.440;2023-05-12T01:43:01;96998.63;;;10.17;100.00
3668;BME280;24099;47.102;15.440;2023-05-12T01:45:32;96995.88;;;10.10;100.00
3668;BME280;24099;47.102;15.440;2023-05-12T01:48:00;96991.91;;;10.14;100.00
3668;BME280;24099;47.102;15.440;2023-05-12T01:50:28;96996.81;;;10.17;100.00
3668;BME280;24099;47.102;15.440;2023-05-12T01:52:56;96990.53;;;10.18;100.00
3668;BME280;24099;47.102;15.440;2023-05-12T01:55:24;96994.19;;;10.17;100.00
3668;BME280;24099;47.102;15.440;2023-05-12T01:57:55;96989.91;;;10.16;100.00
3668;BME280;24099;47.102;15.440;2023-05-12T02:00:24;96993.19;;;10.18;100.00
3668;BME280;24099;47.102;15.440;2023-05-12T02:02:56;96993.19;;;10.18;100.00
3668;BME280;24099;47.102;15.440;2023-05-12T02:05:23;96978.75;;;10.14;100.00
3668;BME280;24099;47.102;15.440;2023-05-12T02:07:52;96980.94;;;10.11;100.00
3668;BME280;24099;47.102;15.440;2023-05-12T02:10:19;96989.09;;;10.16;100.00
3668;BME280;24099;47.102;15.440;2023-05-12T02:12:48;96995.25;;;10.23;100.00
3668;BME280;24099;47.102;15.440;2023-05-12T02:15:16;96981.47;;;10.21;100.00
3668;BME280;24099;47.102;15.440;2023-05-12T02:17:47;96985.47;;;10.17;100.00
3668;BME280;24099;47.102;15.440;2023-05-12T02:20:19;96976.34;;;9.98;100.00
3668;BME280;24099;47.102;15.440;2023-05-12T02:22:46;96979.97;;;9.97;100.00
3668;BME280;24099;47.102;15.440;2023-05-12T02:25:14;96979.22;;;10.03;100.00
3668;BME280;24099;47.102;15.440;2023-05-12T02:27:42;96977.84;;;10.07;100.00
3668;BME280;24099;47.102;15.440;2023-05-12T02:30:11;96988.19;;;10.09;100.00
3668;BME280;24099;47.102;15.440;2023-05-12T02:32:39;96976.66;;;10.10;100.00
3668;BME280;24099;47.102;15.440;2023-05-12T02:35:10;96983.59;;;9.96;100.00
3668;BME280;24099;47.102;15.440;2023-05-12T02:37:39;96984.09;;;10.06;100.00
3668;BME280;24099;47.102;15.440;2023-05-12T02:40:07;96976.41;;;10.05;100.00
3668;BME280;24099;47.102;15.440;2023-05-12T02:42:35;96969.97;;;9.92;100.00
3668;BME280;24099;47.102;15.440;2023-05-12T02:45:09;96969.25;;;9.98;100.00
3668;BME280;24099;47.102;15.440;2023-05-12T02:47:36;96968.41;;;10.27;100.00
3668;BME280;24099;47.102;15.440;2023-05-12T02:50:05;96967.25;;;10.15;100.00
3668;BME280;24099;47.102;15.440;2023-05-12T02:52:34;96976.50;;;10.11;100.00
3668;BME280;24099;47.102;15.440;2023-05-12T02:55:02;96968.50;;;10.05;100.00
3668;BME280;24099;47.102;15.440;2023-05-12T02:57:31;96967.88;;;10.02;100.00
3668;BME280;24099;47.102;15.440;2023-05-12T02:59:59;96967.44;;;9.99;100.00
3668;BME280;24099;47.102;15.440;2023-05-12T03:02:27;96966.50;;;10.07;100.00
3668;BME280;24099;47.102;15.440;2023-05-12T03:04:55;96968.88;;;9.87;100.00
3668;BME280;24099;47.102;15.440;2023-05-12T03:07:23;96970.53;;;9.88;100.00
3668;BME280;24099;47.102;15.440;2023-05-12T03:09:52;96974.22;;;10.08;100.00
3668;BME280;24099;47.102;15.440;2023-05-12T03:12:21;96967.06;;;9.87;100.00
3668;BME280;24099;47.102;15.440;2023-05-12T03:14:49;96964.78;;;10.14;100.00
3668;BME280;24099;47.102;15.440;2023-05-12T03:17:16;96965.00;;;9.97;100.00
3668;BME280;24099;47.102;15.440;2023-05-12T03:19:44;96965.63;;;9.85;100.00
3668;BME280;24099;47.102;15.440;2023-05-12T03:22:12;96963.53;;;9.80;100.00
3668;BME280;24099;47.102;15.440;2023-05-12T03:24:40;96962.34;;;9.83;100.00
3668;BME280;24099;47.102;15.440;2023-05-12T03:27:09;96961.13;;;9.79;100.00
3668;BME280;24099;47.102;15.440;2023-05-12T03:29:37;96968.69;;;10.03;100.00
3668;BME280;24099;47.102;15.440;2023-05-12T03:32:06;96963.28;;;9.90;100.00
3668;BME280;24099;47.102;15.440;2023-05-12T03:34:34;96958.50;;;9.79;100.00
3668;BME280;24099;47.102;15.440;2023-05-12T03:37:02;96966.16;;;9.80;100.00
3668;BME280;24099;47.102;15.440;2023-05-12T03:39:30;96962.47;;;9.89;100.00
3668;BME280;24099;47.102;15.440;2023-05-12T03:41:58;96961.63;;;9.89;100.00
3668;BME280;24099;47.102;15.440;2023-05-12T03:44:27;96960.19;;;9.86;100.00
3668;BME280;24099;47.102;15.440;2023-05-12T03:46:56;96965.47;;;9.72;100.00
3668;BME280;24099;47.102;15.440;2023-05-12T03:49:24;96965.72;;;9.77;100.00
3668;BME280;24099;47.102;15.440;2023-05-12T03:51:52;96971.88;;;9.84;100.00
3668;BME280;24099;47.102;15.440;2023-05-12T03:54:19;96974.16;;;9.87;100.00
3668;BME280;24099;47.102;15.440;2023-05-12T03:56:47;96969.34;;;9.76;100.00
3668;BME280;24099;47.102;15.440;2023-05-12T03:59:15;96970.13;;;10.06;100.00
3668;BME280;24099;47.102;15.440;2023-05-12T04:01:46;96967.56;;;9.76;100.00
3668;BME280;24099;47.102;15.440;2023-05-12T04:04:13;96965.25;;;9.88;100.00
3668;BME280;24099;47.102;15.440;2023-05-12T04:06:41;96971.88;;;9.84;100.00
3668;BME280;24099;47.102;15.440;2023-05-12T04:09:09;96966.19;;;9.95;100.00
3668;BME280;24099;47.102;15.440;2023-05-12T04:11:39;96974.06;;;9.95;100.00
3668;BME280;24099;47.102;15.440;2023-05-12T04:14:06;96965.63;;;9.85;100.00
3668;BME280;24099;47.102;15.440;2023-05-12T04:16:36;96970.97;;;9.91;100.00
3668;BME280;24099;47.102;15.440;2023-05-12T04:19:07;96975.88;;;9.94;100.00
3668;BME280;24099;47.102;15.440;2023-05-12T04:21:35;96979.50;;;9.93;100.00
3668;BME280;24099;47.102;15.440;2023-05-12T04:24:03;96980.50;;;9.92;100.00
3668;BME280;24099;47.102;15.440;2023-05-12T04:26:34;96984.47;;;9.88;100.00
3668;BME280;24099;47.102;15.440;2023-05-12T04:29:03;96980.69;;;9.91;100.00
3668;BME280;24099;47.102;15.440;2023-05-12T04:31:30;96982.94;;;9.94;100.00
3668;BME280;24099;47.102;15.440;2023-05-12T04:33:59;96983.31;;;9.91;100.00
3668;BME280;24099;47.102;15.440;2023-05-12T04:36:29;96987.94;;;9.89;100.00
3668;BME280;24099;47.102;15.440;2023-05-12T04:38:57;96995.97;;;10.02;100.00
3668;BME280;24099;47.102;15.440;2023-05-12T04:41:25;96997.72;;;9.95;100.00
3668;BME280;24099;47.102;15.440;2023-05-12T04:43:53;96996.16;;;10.00;100.00
3668;BME280;24099;47.102;15.440;2023-05-12T04:46:21;97001.00;;;9.97;100.00
3668;BME280;24099;47.102;15.440;2023-05-12T04:48:49;97000.25;;;9.88;100.00
3668;BME280;24099;47.102;15.440;2023-05-12T04:51:17;97005.63;;;9.95;100.00
3668;BME280;24099;47.102;15.440;2023-05-12T04:53:47;97003.78;;;9.81;100.00
3668;BME280;24099;47.102;15.440;2023-05-12T04:56:14;97011.41;;;9.90;100.00
3668;BME280;24099;47.102;15.440;2023-05-12T04:58:44;97011.22;;;9.77;100.00
3668;BME280;24099;47.102;15.440;2023-05-12T05:01:12;97001.81;;;9.97;100.00
3668;BME280;24099;47.102;15.440;2023-05-12T05:03:40;97005.25;;;9.98;100.00
3668;BME280;24099;47.102;15.440;2023-05-12T05:06:08;97005.50;;;9.88;100.00
3668;BME280;24099;47.102;15.440;2023-05-12T05:08:35;97004.97;;;9.93;100.00
3668;BME280;24099;47.102;15.440;2023-05-12T05:11:05;97001.06;;;10.18;100.00
3668;BME280;24099;47.102;15.440;2023-05-12T05:13:32;97005.50;;;10.03;100.00
3668;BME280;24099;47.102;15.440;2023-05-12T05:16:00;96999.69;;;10.08;100.00
3668;BME280;24099;47.102;15.440;2023-05-12T05:18:28;97003.97;;;10.09;100.00
3668;BME280;24099;47.102;15.440;2023-05-12T05:20:56;97006.69;;;10.00;100.00
3668;BME280;24099;47.102;15.440;2023-05-12T05:23:24;97007.88;;;9.98;100.00
3668;BME280;24099;47.102;15.440;2023-05-12T05:25:52;97012.38;;;10.04;100.00
3668;BME280;24099;47.102;15.440;2023-05-12T05:28:21;97004.88;;;10.01;100.00
3668;BME280;24099;47.102;15.440;2023-05-12T05:30:49;97008.03;;;10.11;100.00
3668;BME280;24099;47.102;15.440;2023-05-12T05:33:17;97014.31;;;10.10;100.00
3668;BME280;24099;47.102;15.440;2023-05-12T05:35:46;97012.94;;;10.14;100.00
3668;BME280;24099;47.102;15.440;2023-05-12T05:38:14;97021.94;;;10.20;100.00
3668;BME280;24099;47.102;15.440;2023-05-12T05:40:42;97015.47;;;10.22;100.00
3668;BME280;24099;47.102;15.440;2023-05-12T05:43:13;97015.94;;;10.26;100.00
3668;BME280;24099;47.102;15.440;2023-05-12T05:45:42;97024.00;;;10.24;100.00
3668;BME280;24099;47.102;15.440;2023-05-12T05:48:10;97021.94;;;10.34;100.00
3668;BME280;24099;47.102;15.440;2023-05-12T05:50:38;97027.91;;;10.28;100.00
3668;BME280;24099;47.102;15.440;2023-05-12T05:53:06;97026.56;;;10.18;100.00
3668;BME280;24099;47.102;15.440;2023-05-12T05:55:34;97018.19;;;10.14;100.00
3668;BME280;24099;47.102;15.440;2023-05-12T05:58:01;97021.09;;;10.19;100.00
3668;BME280;24099;47.102;15.440;2023-05-12T06:00:29;97028.63;;;10.22;100.00
3668;BME280;24099;47.102;15.440;2023-05-12T06:02:58;97020.56;;;10.24;100.00
3668;BME280;24099;47.102;15.440;2023-05-12T06:05:26;97020.03;;;10.28;100.00
3668;BME280;24099;47.102;15.440;2023-05-12T06:07:54;97024.56;;;10.34;100.00
3668;BME280;24099;47.102;15.440;2023-05-12T06:10:22;97027.00;;;10.36;100.00
3668;BME280;24099;47.102;15.440;2023-05-12T06:12:49;97028.00;;;10.35;100.00
3668;BME280;24099;47.102;15.440;2023-05-12T06:15:17;97043.06;;;10.26;100.00
3668;BME280;24099;47.102;15.440;2023-05-12T06:17:45;97043.59;;;10.37;100.00
3668;BME280;24099;47.102;15.440;2023-05-12T06:20:14;97050.41;;;10.31;100.00
3668;BME280;24099;47.102;15.440;2023-05-12T06:22:45;97052.97;;;10.39;100.00
3668;BME280;24099;47.102;15.440;2023-05-12T06:25:12;97054.13;;;10.37;100.00
3668;BME280;24099;47.102;15.440;2023-05-12T06:27:40;97054.19;;;10.14;100.00
3668;BME280;24099;47.102;15.440;2023-05-12T06:30:08;97058.22;;;10.24;100.00
3668;BME280;24099;47.102;15.440;2023-05-12T06:32:36;97054.22;;;10.28;100.00
3668;BME280;24099;47.102;15.440;2023-05-12T06:35:06;97055.13;;;10.35;100.00
3668;BME280;24099;47.102;15.440;2023-05-12T06:37:35;97060.28;;;10.29;100.00
3668;BME280;24099;47.102;15.440;2023-05-12T06:40:04;97058.75;;;10.34;100.00
3668;BME280;24099;47.102;15.440;2023-05-12T06:42:32;97063.84;;;10.36;100.00
3668;BME280;24099;47.102;15.440;2023-05-12T06:45:08;97065.66;;;10.35;100.00
3668;BME280;24099;47.102;15.440;2023-05-12T06:47:36;97064.47;;;10.38;100.00
3668;BME280;24099;47.102;15.440;2023-05-12T06:50:04;97065.81;;;10.49;100.00
3668;BME280;24099;47.102;15.440;2023-05-12T06:52:34;97071.63;;;10.44;100.00
3668;BME280;24099;47.102;15.440;2023-05-12T06:55:03;97070.28;;;10.33;100.00
3668;BME280;24099;47.102;15.440;2023-05-12T06:57:31;97068.81;;;10.46;100.00
3668;BME280;24099;47.102;15.440;2023-05-12T06:59:58;97072.72;;;10.50;100.00
3668;BME280;24099;47.102;15.440;2023-05-12T07:02:28;97073.09;;;10.32;100.00
3668;BME280;24099;47.102;15.440;2023-05-12T07:04:56;97065.53;;;10.44;100.00
3668;BME280;24099;47.102;15.440;2023-05-12T07:07:23;97075.31;;;10.64;100.00
3668;BME280;24099;47.102;15.440;2023-05-12T07:09:53;97070.59;;;10.60;100.00
3668;BME280;24099;47.102;15.440;2023-05-12T07:12:21;97067.84;;;10.68;100.00
3668;BME280;24099;47.102;15.440;2023-05-12T07:14:50;97068.59;;;10.62;100.00
3668;BME280;24099;47.102;15.440;2023-05-12T07:17:17;97073.56;;;10.72;100.00
3668;BME280;24099;47.102;15.440;2023-05-12T07:19:45;97069.31;;;10.70;100.00
3668;BME280;24099;47.102;15.440;2023-05-12T07:22:13;97056.59;;;10.74;100.00
3668;BME280;24099;47.102;15.440;2023-05-12T07:24:40;97065.19;;;10.83;100.00
3668;BME280;24099;47.102;15.440;2023-05-12T07:27:10;97059.91;;;10.83;100.00
3668;BME280;24099;47.102;15.440;2023-05-12T07:29:37;97058.63;;;10.93;100.00
3668;BME280;24099;47.102;15.440;2023-05-12T07:32:05;97060.94;;;11.03;100.00
3668;BME280;24099;47.102;15.440;2023-05-12T07:34:33;97059.72;;;10.99;100.00
3668;BME280;24099;47.102;15.440;2023-05-12T07:37:01;97049.47;;;11.11;100.00
3668;BME280;24099;47.102;15.440;2023-05-12T07:39:29;97047.09;;;10.94;100.00
3668;BME280;24099;47.102;15.440;2023-05-12T07:41:57;97041.31;;;11.05;100.00
3668;BME280;24099;47.102;15.440;2023-05-12T07:44:26;97048.97;;;11.22;100.00
3668;BME280;24099;47.102;15.440;2023-05-12T07:46:54;97046.59;;;11.27;100.00
3668;BME280;24099;47.102;15.440;2023-05-12T07:49:22;97043.50;;;11.23;100.00
3668;BME280;24099;47.102;15.440;2023-05-12T07:51:49;97035.78;;;11.22;100.00
3668;BME280;24099;47.102;15.440;2023-05-12T07:54:18;97041.22;;;11.14;100.00
3668;BME280;24099;47.102;15.440;2023-05-12T07:56:54;97027.22;;;11.34;100.00
3668;BME280;24099;47.102;15.440;2023-05-12T07:59:22;97031.94;;;11.18;100.00
3668;BME280;24099;47.102;15.440;2023-05-12T08:01:51;97031.59;;;11.06;100.00
3668;BME280;24099;47.102;15.440;2023-05-12T08:04:19;97034.28;;;11.34;100.00
3668;BME280;24099;47.102;15.440;2023-05-12T08:06:47;97031.16;;;11.24;100.00
3668;BME280;24099;47.102;15.440;2023-05-12T08:09:15;97042.19;;;11.34;100.00
3668;BME280;24099;47.102;15.440;2023-05-12T08:11:43;97037.50;;;11.29;100.00
3668;BME280;24099;47.102;15.440;2023-05-12T08:14:10;97037.84;;;11.48;100.00
3668;BME280;24099;47.102;15.440;2023-05-12T08:16:44;97027.56;;;11.53;100.00
3668;BME280;24099;47.102;15.440;2023-05-12T08:19:13;97039.34;;;11.57;100.00
3668;BME280;24099;47.102;15.440;2023-05-12T08:21:40;97027.06;;;11.70;100.00
3668;BME280;24099;47.102;15.440;2023-05-12T08:24:08;97030.63;;;11.78;100.00
3668;BME280;24099;47.102;15.440;2023-05-12T08:26:36;97027.78;;;11.30;100.00
3668;BME280;24099;47.102;15.440;2023-05-12T08:29:04;97024.38;;;11.36;100.00
3668;BME280;24099;47.102;15.440;2023-05-12T08:31:33;97029.09;;;11.68;100.00
3668;BME280;24099;47.102;15.440;2023-05-12T08:34:02;97027.00;;;11.64;100.00
3668;BME280;24099;47.102;15.440;2023-05-12T08:36:32;97033.28;;;11.84;100.00
3668;BME280;24099;47.102;15.440;2023-05-12T08:38:59;97022.63;;;11.99;100.00
3668;BME280;24099;47.102;15.440;2023-05-12T08:41:36;97018.63;;;12.10;100.00
3668;BME280;24099;47.102;15.440;2023-05-12T08:44:06;97023.59;;;11.91;100.00
3668;BME280;24099;47.102;15.440;2023-05-12T08:46:37;97022.75;;;12.19;100.00
3668;BME280;24099;47.102;15.440;2023-05-12T08:49:06;97027.09;;;11.98;100.00
3668;BME280;24099;47.102;15.440;2023-05-12T08:51:40;97026.06;;;11.99;100.00
3668;BME280;24099;47.102;15.440;2023-05-12T08:54:11;97024.13;;;12.15;100.00
3668;BME280;24099;47.102;15.440;2023-05-12T08:56:40;97038.97;;;12.16;100.00
3668;BME280;24099;47.102;15.440;2023-05-12T08:59:09;97026.16;;;12.13;100.00
3668;BME280;24099;47.102;15.440;2023-05-12T09:01:37;97028.09;;;11.97;100.00
3668;BME280;24099;47.102;15.440;2023-05-12T09:04:09;97027.25;;;11.90;100.00
3668;BME280;24099;47.102;15.440;2023-05-12T09:06:38;97034.06;;;12.13;100.00
3668;BME280;24099;47.102;15.440;2023-05-12T09:09:06;97032.88;;;12.15;100.00
3668;BME280;24099;47.102;15.440;2023-05-12T09:11:40;97037.09;;;11.82;100.00
3668;BME280;24099;47.102;15.440;2023-05-12T09:14:11;97051.09;;;11.82;100.00
3668;BME280;24099;47.102;15.440;2023-05-12T09:16:43;97051.03;;;12.03;100.00
3668;BME280;24099;47.102;15.440;2023-05-12T09:19:11;97045.06;;;12.16;100.00
3668;BME280;24099;47.102;15.440;2023-05-12T09:21:40;97059.06;;;12.23;100.00
3668;BME280;24099;47.102;15.440;2023-05-12T09:24:08;97056.06;;;11.92;100.00
3668;BME280;24099;47.102;15.440;2023-05-12T09:26:46;97058.06;;;12.18;100.00
3668;BME280;24099;47.102;15.440;2023-05-12T09:29:14;97052.56;;;12.19;100.00
3668;BME280;24099;47.102;15.440;2023-05-12T09:31:49;97056.19;;;12.12;100.00
3668;BME280;24099;47.102;15.440;2023-05-12T09:34:27;97060.59;;;12.04;100.00
3668;BME280;24099;47.102;15.440;2023-05-12T09:36:57;97056.97;;;11.78;100.00
3668;BME280;24099;47.102;15.440;2023-05-12T09:39:29;97065.41;;;11.94;100.00
3668;BME280;24099;47.102;15.440;2023-05-12T09:41:56;97052.91;;;12.10;100.00
3668;BME280;24099;47.102;15.440;2023-05-12T09:44:25;97052.56;;;12.19;100.00
3668;BME280;24099;47.102;15.440;2023-05-12T09:46:54;97053.25;;;12.34;100.00
3668;BME280;24099;47.102;15.440;2023-05-12T09:49:23;97061.13;;;11.44;100.00
3668;BME280;24099;47.102;15.440;2023-05-12T09:51:52;97059.00;;;11.54;100.00
3668;BME280;24099;47.102;15.440;2023-05-12T09:54:28;97058.84;;;11.62;100.00
3668;BME280;24099;47.102;15.440;2023-05-12T09:56:58;97064.09;;;11.84;100.00
3668;BME280;24099;47.102;15.440;2023-05-12T09:59:28;97065.28;;;11.53;100.00
3668;BME280;24099;47.102;15.440;2023-05-12T10:01:59;97065.06;;;12.04;100.00
3668;BME280;24099;47.102;15.440;2023-05-12T10:04:29;97066.88;;;12.03;100.00
3668;BME280;24099;47.102;15.440;2023-05-12T10:07:01;97065.97;;;12.18;100.00
3668;BME280;24099;47.102;15.440;2023-05-12T10:09:31;97054.75;;;12.09;100.00
3668;BME280;24099;47.102;15.440;2023-05-12T10:12:00;97045.88;;;12.23;100.00
3668;BME280;24099;47.102;15.440;2023-05-12T10:14:33;97043.41;;;12.15;100.00
3668;BME280;24099;47.102;15.440;2023-05-12T10:17:01;97042.28;;;12.79;100.00
3668;BME280;24099;47.102;15.440;2023-05-12T10:19:32;97026.06;;;12.34;100.00
3668;BME280;24099;47.102;15.440;2023-05-12T10:22:01;97016.31;;;12.41;100.00
3668;BME280;24099;47.102;15.440;2023-05-12T10:24:31;97023.69;;;12.52;100.00
3668;BME280;24099;47.102;15.440;2023-05-12T10:27:01;97033.16;;;12.40;100.00
3668;BME280;24099;47.102;15.440;2023-05-12T10:29:31;97025.66;;;11.96;100.00
3668;BME280;24099;47.102;15.440;2023-05-12T10:32:00;97029.03;;;12.24;100.00
3668;BME280;24099;47.102;15.440;2023-05-12T10:34:31;97029.47;;;12.28;100.00
3668;BME280;24099;47.102;15.440;2023-05-12T10:36:59;97028.84;;;12.26;100.00
3668;BME280;24099;47.102;15.440;2023-05-12T10:39:29;97017.75;;;12.37;100.00
3668;BME280;24099;47.102;15.440;2023-05-12T10:42:05;97037.22;;;12.36;100.00
3668;BME280;24099;47.102;15.440;2023-05-12T10:44:34;97040.69;;;12.43;100.00
3668;BME280;24099;47.102;15.440;2023-05-12T10:47:10;97034.59;;;12.42;100.00
3668;BME280;24099;47.102;15.440;2023-05-12T10:49:39;97034.84;;;12.48;100.00
3668;BME280;24099;47.102;15.440;2023-05-12T10:52:08;97036.94;;;12.59;100.00
3668;BME280;24099;47.102;15.440;2023-05-12T10:54:39;97034.47;;;12.64;100.00
3668;BME280;24099;47.102;15.440;2023-05-12T10:57:14;97040.06;;;12.41;100.00
3668;BME280;24099;47.102;15.440;2023-05-12T10:59:50;97050.25;;;12.44;100.00
3668;BME280;24099;47.102;15.440;2023-05-12T11:02:21;97046.38;;;12.40;100.00
3668;BME280;24099;47.102;15.440;2023-05-12T11:04:52;97044.84;;;12.65;100.00
3668;BME280;24099;47.102;15.440;2023-05-12T11:07:23;97058.34;;;12.36;100.00
3668;BME280;24099;47.102;15.440;2023-05-12T11:09:53;97066.69;;;12.46;100.00
3668;BME280;24099;47.102;15.440;2023-05-12T11:12:26;97063.63;;;12.42;100.00
3668;BME280;24099;47.102;15.440;2023-05-12T11:14:54;97048.19;;;12.94;100.00
3668;BME280;24099;47.102;15.440;2023-05-12T11:17:21;97048.81;;;12.35;100.00
3668;BME280;24099;47.102;15.440;2023-05-12T11:19:52;97063.66;;;12.08;100.00
3668;BME280;24099;47.102;15.440;2023-05-12T11:22:21;97075.16;;;11.94;100.00
3668;BME280;24099;47.102;15.440;2023-05-12T11:24:50;97072.31;;;12.30;100.00
3668;BME280;24099;47.102;15.440;2023-05-12T11:27:20;97071.34;;;12.03;100.00
3668;BME280;24099;47.102;15.440;2023-05-12T11:29:57;97073.69;;;11.91;100.00
3668;BME280;24099;47.102;15.440;2023-05-12T11:32:24;97077.94;;;12.20;100.00
3668;BME280;24099;47.102;15.440;2023-05-12T11:34:52;97083.13;;;12.41;100.00
3668;BME280;24099;47.102;15.440;2023-05-12T11:37:20;97078.41;;;12.30;100.00
3668;BME280;24099;47.102;15.440;2023-05-12T11:39:48;97080.56;;;12.20;100.00
3668;BME280;24099;47.102;15.440;2023-05-12T11:42:18;97069.72;;;12.36;100.00
3668;BME280;24099;47.102;15.440;2023-05-12T11:44:47;97077.25;;;12.46;100.00
3668;BME280;24099;47.102;15.440;2023-05-12T11:47:22;97082.00;;;12.64;100.00
3668;BME280;24099;47.102;15.440;2023-05-12T11:49:58;97081.16;;;12.50;100.00
3668;BME280;24099;47.102;15.440;2023-05-12T11:52:26;97077.53;;;12.23;100.00
3668;BME280;24099;47.102;15.440;2023-05-12T11:54:57;97081.97;;;12.51;100.00
3668;BME280;24099;47.102;15.440;2023-05-12T11:57:29;97074.81;;;12.45;100.00
3668;BME280;24099;47.102;15.440;2023-05-12T11:59:58;97075.00;;;12.36;100.00
3668;BME280;24099;47.102;15.440;2023-05-12T12:02:28;97066.25;;;12.77;100.00
3668;BME280;24099;47.102;15.440;2023-05-12T12:04:56;97058.13;;;12.85;100.00
3668;BME280;24099;47.102;15.440;2023-05-12T12:07:34;97071.38;;;12.98;100.00
3668;BME280;24099;47.102;15.440;2023-05-12T12:10:10;97067.63;;;12.80;100.00
3668;BME280;24099;47.102;15.440;2023-05-12T12:12:39;97067.88;;;12.78;100.00
3668;BME280;24099;47.102;15.440;2023-05-12T12:15:07;97063.44;;;12.44;100.00
3668;BME280;24099;47.102;15.440;2023-05-12T12:17:37;97061.81;;;12.36;100.00
3668;BME280;24099;47.102;15.440;2023-05-12T12:20:06;97069.38;;;12.53;100.00
3668;BME280;24099;47.102;15.440;2023-05-12T12:22:34;97065.16;;;12.65;100.00
3668;BME280;24099;47.102;15.440;2023-05-12T12:25:05;97064.13;;;12.59;100.00
3668;BME280;24099;47.102;15.440;2023-05-12T12:27:33;97065.69;;;12.47;100.00
3668;BME280;24099;47.102;15.440;2023-05-12T12:30:01;97066.09;;;12.98;100.00
3668;BME280;24099;47.102;15.440;2023-05-12T12:32:29;97063.28;;;12.52;100.00
3668;BME280;24099;47.102;15.440;2023-05-12T12:34:59;97068.38;;;12.54;100.00
3668;BME280;24099;47.102;15.440;2023-05-12T12:37:29;97059.47;;;12.20;100.00
3668;BME280;24099;47.102;15.440;2023-05-12T12:39:57;97059.47;;;12.20;100.00
3668;BME280;24099;47.102;15.440;2023-05-12T12:42:25;97067.00;;;12.23;100.00
3668;BME280;24099;47.102;15.440;2023-05-12T12:44:53;97064.00;;;12.33;100.00
3668;BME280;24099;47.102;15.440;2023-05-12T12:47:20;97074.13;;;12.29;100.00
3668;BME280;24099;47.102;15.440;2023-05-12T12:49:48;97081.63;;;12.67;100.00
3668;BME280;24099;47.102;15.440;2023-05-12T12:52:17;97083.25;;;12.68;100.00
3668;BME280;24099;47.102;15.440;2023-05-12T12:54:45;97074.63;;;12.46;100.00
3668;BME280;24099;47.102;15.440;2023-05-12T12:57:13;97067.94;;;12.50;100.00
3668;BME280;24099;47.102;15.440;2023-05-12T12:59:43;97068.84;;;12.29;100.00
3668;BME280;24099;47.102;15.440;2023-05-12T13:02:11;97070.13;;;12.05;100.00